DLH1244 LFLL-EDDF
Flight info
| Callsign | DLH1244 |
|---|---|
| Flight time | 1h 0m |
| Altitude | 24000 |
| Route | RISOR T45 VENAT/N0457F320 T45 SOSAL N871 KORED DCT BERSU N871 DITON/N0460F310 DCT LADOL/N0458F320 T163 EMPAX EMPAX5B |
| Aircraft | A320/M-SDE3FGHIRWY/LB1 |
Departure
| Time | 2026-05-04 10:32 |
|---|---|
| Airport | Lyon Saint-Exupéry Airport (LFLL) |
Arrival
| Time | 2026-05-04 11:33 |
|---|---|
| Airport | Frankfurt Main Airport (EDDF) |
| Time | Latitude | Longitude | Altitude | Speed | Heading |
|---|---|---|---|---|---|
| 2026-05-04 10:08 | 45.72266 | 5.08183 | 790 ft | 0 kts | 298° |
| 2026-05-04 10:25 | 45.72231 | 5.08312 | 791 ft | 0 kts | 340° |
| 2026-05-04 10:26 | 45.72234 | 5.08310 | 791 ft | 3 kts | 340° |
| 2026-05-04 10:26 | 45.72271 | 5.08283 | 790 ft | 9 kts | 338° |
| 2026-05-04 10:27 | 45.72323 | 5.08318 | 790 ft | 10 kts | 69° |
| 2026-05-04 10:27 | 45.72360 | 5.08402 | 789 ft | 11 kts | 25° |
| 2026-05-04 10:27 | 45.72456 | 5.08397 | 788 ft | 15 kts | 355° |
| 2026-05-04 10:27 | 45.72525 | 5.08389 | 787 ft | 15 kts | 355° |
| 2026-05-04 10:28 | 45.72660 | 5.08374 | 786 ft | 14 kts | 355° |
| 2026-05-04 10:28 | 45.72777 | 5.08360 | 784 ft | 19 kts | 355° |
| 2026-05-04 10:28 | 45.72875 | 5.08348 | 783 ft | 23 kts | 355° |
| 2026-05-04 10:28 | 45.73104 | 5.08323 | 780 ft | 26 kts | 355° |
| 2026-05-04 10:29 | 45.73228 | 5.08308 | 779 ft | 28 kts | 354° |
| 2026-05-04 10:29 | 45.73427 | 5.08284 | 776 ft | 30 kts | 355° |
| 2026-05-04 10:29 | 45.73636 | 5.08259 | 775 ft | 31 kts | 355° |
| 2026-05-04 10:29 | 45.73828 | 5.08234 | 773 ft | 24 kts | 355° |
| 2026-05-04 10:30 | 45.73999 | 5.08216 | 772 ft | 25 kts | 1° |
| 2026-05-04 10:30 | 45.74172 | 5.08268 | 770 ft | 26 kts | 13° |
| 2026-05-04 10:30 | 45.74321 | 5.08333 | 769 ft | 19 kts | 43° |
| 2026-05-04 10:30 | 45.74352 | 5.08503 | 769 ft | 17 kts | 87° |
| 2026-05-04 10:31 | 45.74320 | 5.08634 | 771 ft | 8 kts | 136° |
| 2026-05-04 10:31 | 45.74277 | 5.08640 | 772 ft | 6 kts | 177° |
| 2026-05-04 10:32 | 45.69493 | 5.09202 | 1918 ft | 202 kts | 174° |
| 2026-05-04 10:33 | 45.68012 | 5.09391 | 2404 ft | 221 kts | 174° |
| 2026-05-04 10:33 | 45.66451 | 5.09587 | 3199 ft | 227 kts | 174° |
| 2026-05-04 10:33 | 45.64871 | 5.09782 | 4130 ft | 227 kts | 174° |
| 2026-05-04 10:33 | 45.63285 | 5.10076 | 4899 ft | 238 kts | 163° |
| 2026-05-04 10:34 | 45.61859 | 5.11348 | 5631 ft | 252 kts | 135° |
| 2026-05-04 10:34 | 45.61047 | 5.13635 | 6442 ft | 271 kts | 107° |
| 2026-05-04 10:34 | 45.60772 | 5.16343 | 7197 ft | 279 kts | 102° |
| 2026-05-04 10:34 | 45.60542 | 5.19118 | 7983 ft | 285 kts | 102° |
| 2026-05-04 10:35 | 45.60315 | 5.21973 | 8737 ft | 291 kts | 101° |
| 2026-05-04 10:35 | 45.60088 | 5.24864 | 9510 ft | 297 kts | 101° |
| 2026-05-04 10:35 | 45.59851 | 5.27822 | 10218 ft | 304 kts | 101° |
| 2026-05-04 10:35 | 45.59591 | 5.30932 | 10514 ft | 327 kts | 101° |
| 2026-05-04 10:36 | 45.59304 | 5.34279 | 10735 ft | 351 kts | 101° |
| 2026-05-04 10:36 | 45.58999 | 5.37808 | 11191 ft | 363 kts | 101° |
| 2026-05-04 10:36 | 45.58697 | 5.41358 | 11842 ft | 368 kts | 100° |
| 2026-05-04 10:36 | 45.58389 | 5.45001 | 12553 ft | 371 kts | 100° |
| 2026-05-04 10:37 | 45.58074 | 5.48688 | 13266 ft | 375 kts | 100° |
| 2026-05-04 10:37 | 45.57753 | 5.52394 | 13958 ft | 379 kts | 100° |
| 2026-05-04 10:37 | 45.57427 | 5.56148 | 14574 ft | 382 kts | 100° |
| 2026-05-04 10:37 | 45.57096 | 5.59931 | 15194 ft | 385 kts | 100° |
| 2026-05-04 10:39 | 45.55021 | 5.83189 | 18820 ft | 402 kts | 101° |
| 2026-05-04 10:39 | 45.54731 | 5.87168 | 19272 ft | 408 kts | 94° |
| 2026-05-04 10:39 | 45.55006 | 5.91260 | 19680 ft | 419 kts | 80° |
| 2026-05-04 10:40 | 45.55961 | 5.95158 | 20135 ft | 426 kts | 65° |
| 2026-05-04 10:40 | 45.57585 | 5.98716 | 20626 ft | 432 kts | 50° |
| 2026-05-04 10:40 | 45.59802 | 6.01656 | 21104 ft | 437 kts | 36° |
| 2026-05-04 10:40 | 45.62375 | 6.03998 | 21572 ft | 440 kts | 32° |
| 2026-05-04 10:41 | 45.64988 | 6.06308 | 22051 ft | 442 kts | 32° |
| 2026-05-04 10:41 | 45.67616 | 6.08630 | 22517 ft | 445 kts | 32° |
| 2026-05-04 10:41 | 45.70259 | 6.10972 | 22934 ft | 448 kts | 32° |
| 2026-05-04 10:41 | 45.72917 | 6.13332 | 23370 ft | 451 kts | 32° |
| 2026-05-04 10:42 | 45.75596 | 6.15716 | 23791 ft | 454 kts | 32° |
| 2026-05-04 10:42 | 45.78289 | 6.18113 | 24015 ft | 455 kts | 32° |
| 2026-05-04 10:42 | 45.80991 | 6.20522 | 24084 ft | 463 kts | 32° |
| 2026-05-04 10:42 | 45.83762 | 6.22995 | 24082 ft | 474 kts | 32° |
| 2026-05-04 10:43 | 45.86573 | 6.25508 | 24080 ft | 477 kts | 32° |
| 2026-05-04 10:44 | 46.06276 | 6.43215 | 24071 ft | 478 kts | 32° |
| 2026-05-04 10:45 | 46.09096 | 6.45763 | 24071 ft | 477 kts | 33° |
| 2026-05-04 10:45 | 46.11904 | 6.48306 | 24068 ft | 477 kts | 33° |
| 2026-05-04 10:45 | 46.14715 | 6.50856 | 24068 ft | 478 kts | 33° |
| 2026-05-04 10:45 | 46.17527 | 6.53407 | 24067 ft | 478 kts | 33° |
| 2026-05-04 10:46 | 46.20310 | 6.55935 | 24062 ft | 477 kts | 33° |
| 2026-05-04 10:46 | 46.23119 | 6.58490 | 24057 ft | 477 kts | 32° |
| 2026-05-04 10:46 | 46.25927 | 6.61043 | 24054 ft | 477 kts | 32° |
| 2026-05-04 10:46 | 46.28773 | 6.63631 | 24056 ft | 477 kts | 32° |
| 2026-05-04 10:47 | 46.31555 | 6.66166 | 24051 ft | 478 kts | 33° |
| 2026-05-04 10:47 | 46.34371 | 6.68738 | 24055 ft | 478 kts | 33° |
| 2026-05-04 10:47 | 46.37186 | 6.71311 | 24054 ft | 478 kts | 33° |
| 2026-05-04 10:47 | 46.39998 | 6.73883 | 24057 ft | 477 kts | 32° |
| 2026-05-04 10:49 | 46.58657 | 6.93539 | 24026 ft | 474 kts | 52° |
| 2026-05-04 10:49 | 46.60725 | 6.97277 | 24020 ft | 474 kts | 52° |
| 2026-05-04 10:50 | 46.62798 | 7.01017 | 24023 ft | 474 kts | 52° |
| 2026-05-04 10:51 | 46.77265 | 7.27192 | 24006 ft | 474 kts | 52° |
| 2026-05-04 10:52 | 46.79330 | 7.30946 | 24002 ft | 474 kts | 52° |
| 2026-05-04 10:52 | 46.81392 | 7.34702 | 23980 ft | 474 kts | 52° |
| 2026-05-04 10:52 | 46.83453 | 7.38467 | 23982 ft | 473 kts | 52° |
| 2026-05-04 10:54 | 46.97794 | 7.64851 | 23992 ft | 473 kts | 52° |
| 2026-05-04 10:54 | 46.99839 | 7.68628 | 23989 ft | 473 kts | 52° |
| 2026-05-04 10:56 | 47.14023 | 7.95213 | 23988 ft | 471 kts | 58° |
| 2026-05-04 10:56 | 47.15768 | 7.99298 | 23990 ft | 471 kts | 59° |
| 2026-05-04 10:56 | 47.17507 | 8.03377 | 23989 ft | 472 kts | 59° |
| 2026-05-04 10:57 | 47.19249 | 8.07463 | 23991 ft | 472 kts | 59° |
| 2026-05-04 10:57 | 47.20993 | 8.11550 | 23992 ft | 472 kts | 59° |
| 2026-05-04 10:57 | 47.22735 | 8.15637 | 23990 ft | 471 kts | 59° |
| 2026-05-04 10:57 | 47.24452 | 8.19675 | 23990 ft | 471 kts | 59° |
| 2026-05-04 10:58 | 47.26211 | 8.23824 | 23996 ft | 471 kts | 59° |
| 2026-05-04 10:58 | 47.27983 | 8.27804 | 23992 ft | 472 kts | 54° |
| 2026-05-04 10:58 | 47.30148 | 8.31454 | 23998 ft | 473 kts | 44° |
| 2026-05-04 10:58 | 47.32669 | 8.34553 | 24007 ft | 473 kts | 35° |
| 2026-05-04 10:59 | 47.35493 | 8.37041 | 24015 ft | 472 kts | 25° |
| 2026-05-04 10:59 | 47.38454 | 8.39131 | 24015 ft | 472 kts | 25° |
| 2026-05-04 10:59 | 47.41416 | 8.41220 | 24020 ft | 472 kts | 25° |
| 2026-05-04 10:59 | 47.44379 | 8.43317 | 24015 ft | 472 kts | 25° |
| 2026-05-04 11:00 | 47.47346 | 8.45425 | 24022 ft | 472 kts | 25° |
| 2026-05-04 11:01 | 47.68065 | 8.60180 | 24011 ft | 472 kts | 25° |
| 2026-05-04 11:02 | 47.71025 | 8.62297 | 24020 ft | 473 kts | 25° |
| 2026-05-04 11:02 | 47.73950 | 8.64392 | 24017 ft | 473 kts | 25° |
| 2026-05-04 11:05 | 48.15437 | 8.94203 | 24024 ft | 472 kts | 19° |
| 2026-05-04 11:06 | 48.18607 | 8.95498 | 24025 ft | 471 kts | 9° |
| 2026-05-04 11:06 | 48.21859 | 8.96112 | 24021 ft | 470 kts | 4° |
| 2026-05-04 11:06 | 48.25072 | 8.96580 | 24020 ft | 470 kts | 4° |
| 2026-05-04 11:06 | 48.28329 | 8.97069 | 24019 ft | 470 kts | 4° |
| 2026-05-04 11:08 | 48.51097 | 9.00562 | 24014 ft | 470 kts | 4° |
| 2026-05-04 11:10 | 48.73787 | 9.04846 | 24008 ft | 470 kts | 8° |
| 2026-05-04 11:12 | 48.96563 | 9.09852 | 22460 ft | 475 kts | 3° |
| 2026-05-04 11:12 | 48.99843 | 9.10236 | 21726 ft | 470 kts | 3° |
| 2026-05-04 11:12 | 49.03084 | 9.10604 | 21038 ft | 465 kts | 3° |
| 2026-05-04 11:12 | 49.06302 | 9.10989 | 20349 ft | 461 kts | 4° |
| 2026-05-04 11:13 | 49.09484 | 9.11407 | 19675 ft | 457 kts | 4° |
| 2026-05-04 11:13 | 49.12635 | 9.11858 | 19023 ft | 453 kts | 5° |
| 2026-05-04 11:13 | 49.15751 | 9.12318 | 18388 ft | 449 kts | 5° |
| 2026-05-04 11:13 | 49.18846 | 9.12798 | 17721 ft | 444 kts | 5° |
| 2026-05-04 11:14 | 49.21874 | 9.13282 | 17045 ft | 440 kts | 5° |
| 2026-05-04 11:14 | 49.24909 | 9.13763 | 16376 ft | 436 kts | 5° |
| 2026-05-04 11:14 | 49.27918 | 9.14235 | 15725 ft | 433 kts | 5° |
| 2026-05-04 11:16 | 49.47320 | 9.18914 | 12796 ft | 380 kts | 25° |
| 2026-05-04 11:16 | 49.49696 | 9.20607 | 12414 ft | 373 kts | 25° |
| 2026-05-04 11:16 | 49.51242 | 9.21708 | 12160 ft | 368 kts | 25° |
| 2026-05-04 11:17 | 49.54432 | 9.23420 | 11644 ft | 359 kts | 13° |
| 2026-05-04 11:17 | 49.56039 | 9.23986 | 11404 ft | 356 kts | 13° |
| 2026-05-04 11:19 | 49.71827 | 9.25667 | 10020 ft | 302 kts | 344° |
| 2026-05-04 11:19 | 49.73869 | 9.24894 | 10019 ft | 302 kts | 344° |
| 2026-05-04 11:19 | 49.75905 | 9.24116 | 10019 ft | 302 kts | 344° |
| 2026-05-04 11:19 | 49.77947 | 9.23335 | 9987 ft | 302 kts | 344° |
| 2026-05-04 11:20 | 49.79988 | 9.22556 | 9665 ft | 301 kts | 344° |
| 2026-05-04 11:20 | 49.82011 | 9.21784 | 9361 ft | 297 kts | 344° |
| 2026-05-04 11:20 | 49.83997 | 9.21030 | 9052 ft | 293 kts | 344° |
| 2026-05-04 11:20 | 49.85974 | 9.20290 | 8736 ft | 289 kts | 344° |
| 2026-05-04 11:22 | 49.99003 | 9.15413 | 6959 ft | 253 kts | 344° |
| 2026-05-04 11:22 | 50.00722 | 9.14774 | 6592 ft | 254 kts | 344° |
| 2026-05-04 11:23 | 50.02447 | 9.14127 | 6219 ft | 255 kts | 343° |
| 2026-05-04 11:23 | 50.04171 | 9.13498 | 5836 ft | 255 kts | 344° |
| 2026-05-04 11:24 | 50.13313 | 9.08221 | 4033 ft | 209 kts | 289° |
| 2026-05-04 11:25 | 50.13798 | 9.06099 | 4039 ft | 207 kts | 285° |
| 2026-05-04 11:25 | 50.14191 | 9.03943 | 4039 ft | 206 kts | 277° |
| 2026-05-04 11:25 | 50.14151 | 9.01751 | 4045 ft | 202 kts | 253° |
| 2026-05-04 11:26 | 50.13203 | 8.97632 | 4043 ft | 202 kts | 249° |
| 2026-05-04 11:27 | 50.09816 | 8.83202 | 3619 ft | 202 kts | 249° |
| 2026-05-04 11:28 | 50.09332 | 8.81147 | 3369 ft | 201 kts | 249° |
| 2026-05-04 11:28 | 50.08846 | 8.79086 | 3098 ft | 204 kts | 249° |
| 2026-05-04 11:28 | 50.08361 | 8.77029 | 2817 ft | 200 kts | 249° |
| 2026-05-04 11:28 | 50.07904 | 8.75002 | 2520 ft | 197 kts | 252° |
| 2026-05-04 11:29 | 50.07623 | 8.72940 | 2256 ft | 193 kts | 261° |
| 2026-05-04 11:29 | 50.07409 | 8.70955 | 2030 ft | 181 kts | 251° |
| 2026-05-04 11:29 | 50.07006 | 8.69184 | 1798 ft | 166 kts | 248° |
| 2026-05-04 11:29 | 50.06617 | 8.67552 | 1570 ft | 157 kts | 249° |
| 2026-05-04 11:31 | 50.04156 | 8.57212 | 365 ft | 120 kts | 250° |
| 2026-05-04 11:33 | 50.03913 | 8.55674 | 354 ft | 0 kts | 293° |
| 2026-05-04 11:34 | 50.03913 | 8.55673 | 353 ft | 0 kts | 293° |
| 2026-05-04 11:34 | 50.03914 | 8.55669 | 352 ft | 3 kts | 293° |
| 2026-05-04 11:34 | 50.03957 | 8.55631 | 357 ft | 11 kts | 16° |
| 2026-05-04 11:35 | 50.04003 | 8.55761 | 353 ft | 15 kts | 70° |
| 2026-05-04 11:35 | 50.04040 | 8.55917 | 358 ft | 16 kts | 70° |
| 2026-05-04 11:35 | 50.04080 | 8.56081 | 358 ft | 17 kts | 69° |
| 2026-05-04 11:35 | 50.04124 | 8.56258 | 355 ft | 18 kts | 70° |
| 2026-05-04 11:36 | 50.04169 | 8.56450 | 360 ft | 20 kts | 70° |
| 2026-05-04 11:36 | 50.04218 | 8.56660 | 364 ft | 22 kts | 69° |
| 2026-05-04 11:36 | 50.04270 | 8.56877 | 363 ft | 22 kts | 69° |
| 2026-05-04 11:36 | 50.04326 | 8.57108 | 361 ft | 23 kts | 69° |
| 2026-05-04 11:37 | 50.04384 | 8.57349 | 361 ft | 25 kts | 70° |
| 2026-05-04 11:37 | 50.04445 | 8.57606 | 369 ft | 25 kts | 70° |
| 2026-05-04 11:37 | 50.04508 | 8.57868 | 365 ft | 27 kts | 69° |
| 2026-05-04 11:37 | 50.04571 | 8.58142 | 363 ft | 28 kts | 69° |
| 2026-05-04 11:38 | 50.04636 | 8.58416 | 371 ft | 27 kts | 69° |
| 2026-05-04 11:38 | 50.04695 | 8.58655 | 370 ft | 19 kts | 69° |
| 2026-05-04 11:38 | 50.04798 | 8.58734 | 371 ft | 21 kts | 339° |
| 2026-05-04 11:38 | 50.04906 | 8.58675 | 364 ft | 12 kts | 348° |
| 2026-05-04 11:39 | 50.04964 | 8.58731 | 359 ft | 6 kts | 79° |
| 2026-05-04 11:39 | 50.04944 | 8.58771 | 364 ft | 3 kts | 154° |